sensor_id;sensor_type;location;lat;lon;timestamp;P1;durP1;ratioP1;P2;durP2;ratioP2
70444;SDS011;57902;49.638;11.070;2023-07-16T00:01:56;8.05;;;3.75;;
70444;SDS011;57902;49.638;11.070;2023-07-16T00:04:23;7.82;;;3.60;;
70444;SDS011;57902;49.638;11.070;2023-07-16T00:06:49;8.65;;;3.97;;
70444;SDS011;57902;49.638;11.070;2023-07-16T00:09:16;6.20;;;3.65;;
70444;SDS011;57902;49.638;11.070;2023-07-16T00:11:42;7.97;;;3.45;;
70444;SDS011;57902;49.638;11.070;2023-07-16T00:14:12;8.60;;;3.67;;
70444;SDS011;57902;49.638;11.070;2023-07-16T00:16:38;5.93;;;3.33;;
70444;SDS011;57902;49.638;11.070;2023-07-16T00:19:05;7.78;;;3.83;;
70444;SDS011;57902;49.638;11.070;2023-07-16T00:21:32;6.70;;;3.83;;
70444;SDS011;57902;49.638;11.070;2023-07-16T00:23:58;8.23;;;3.67;;
70444;SDS011;57902;49.638;11.070;2023-07-16T00:26:25;9.13;;;4.28;;
70444;SDS011;57902;49.638;11.070;2023-07-16T00:28:52;7.55;;;4.10;;
70444;SDS011;57902;49.638;11.070;2023-07-16T00:31:18;8.10;;;4.05;;
70444;SDS011;57902;49.638;11.070;2023-07-16T00:33:45;7.70;;;3.90;;
70444;SDS011;57902;49.638;11.070;2023-07-16T00:36:11;7.75;;;3.85;;
70444;SDS011;57902;49.638;11.070;2023-07-16T00:38:38;7.45;;;4.13;;
70444;SDS011;57902;49.638;11.070;2023-07-16T00:41:06;7.22;;;3.92;;
70444;SDS011;57902;49.638;11.070;2023-07-16T00:43:33;7.10;;;3.70;;
70444;SDS011;57902;49.638;11.070;2023-07-16T00:45:59;8.15;;;4.30;;
70444;SDS011;57902;49.638;11.070;2023-07-16T00:48:27;8.10;;;4.28;;
70444;SDS011;57902;49.638;11.070;2023-07-16T00:50:55;9.02;;;4.22;;
70444;SDS011;57902;49.638;11.070;2023-07-16T00:53:23;7.18;;;4.20;;
70444;SDS011;57902;49.638;11.070;2023-07-16T00:55:49;7.75;;;3.80;;
70444;SDS011;57902;49.638;11.070;2023-07-16T00:58:16;8.95;;;4.13;;
70444;SDS011;57902;49.638;11.070;2023-07-16T01:00:43;7.05;;;3.83;;
70444;SDS011;57902;49.638;11.070;2023-07-16T01:03:10;8.15;;;4.07;;
70444;SDS011;57902;49.638;11.070;2023-07-16T01:08:41;7.15;;;4.22;;
70444;SDS011;57902;49.638;11.070;2023-07-16T01:11:11;8.05;;;4.15;;
70444;SDS011;57902;49.638;11.070;2023-07-16T01:13:38;8.80;;;3.72;;
70444;SDS011;57902;49.638;11.070;2023-07-16T01:16:06;9.70;;;3.95;;
70444;SDS011;57902;49.638;11.070;2023-07-16T01:18:32;6.75;;;3.63;;
70444;SDS011;57902;49.638;11.070;2023-07-16T01:20:59;6.53;;;3.10;;
70444;SDS011;57902;49.638;11.070;2023-07-16T01:32:03;6.13;;;2.75;;
70444;SDS011;57902;49.638;11.070;2023-07-16T01:34:32;5.75;;;2.30;;
70444;SDS011;57902;49.638;11.070;2023-07-16T01:37:01;7.18;;;2.58;;
70444;SDS011;57902;49.638;11.070;2023-07-16T01:39:28;4.80;;;2.25;;
70444;SDS011;57902;49.638;11.070;2023-07-16T01:44:23;5.35;;;2.15;;
70444;SDS011;57902;49.638;11.070;2023-07-16T01:46:53;7.03;;;2.33;;
70444;SDS011;57902;49.638;11.070;2023-07-16T01:49:32;4.43;;;1.95;;
70444;SDS011;57902;49.638;11.070;2023-07-16T01:51:59;3.83;;;1.90;;
70444;SDS011;57902;49.638;11.070;2023-07-16T01:54:27;4.15;;;2.00;;
70444;SDS011;57902;49.638;11.070;2023-07-16T01:56:54;4.63;;;1.95;;
70444;SDS011;57902;49.638;11.070;2023-07-16T01:59:20;5.07;;;1.98;;
70444;SDS011;57902;49.638;11.070;2023-07-16T02:01:47;4.85;;;2.00;;
70444;SDS011;57902;49.638;11.070;2023-07-16T02:04:13;4.65;;;2.10;;
70444;SDS011;57902;49.638;11.070;2023-07-16T02:06:40;7.00;;;2.40;;
70444;SDS011;57902;49.638;11.070;2023-07-16T02:09:06;7.10;;;2.20;;
70444;SDS011;57902;49.638;11.070;2023-07-16T02:11:33;4.32;;;2.00;;
70444;SDS011;57902;49.638;11.070;2023-07-16T02:13:59;4.65;;;2.10;;
70444;SDS011;57902;49.638;11.070;2023-07-16T02:16:26;4.18;;;1.73;;
70444;SDS011;57902;49.638;11.070;2023-07-16T02:18:52;4.90;;;1.90;;
70444;SDS011;57902;49.638;11.070;2023-07-16T02:21:19;4.90;;;2.10;;
70444;SDS011;57902;49.638;11.070;2023-07-16T02:23:45;4.60;;;2.00;;
70444;SDS011;57902;49.638;11.070;2023-07-16T02:26:12;3.95;;;2.10;;
70444;SDS011;57902;49.638;11.070;2023-07-16T02:28:39;4.28;;;1.95;;
70444;SDS011;57902;49.638;11.070;2023-07-16T02:31:06;5.97;;;2.17;;
70444;SDS011;57902;49.638;11.070;2023-07-16T02:33:32;5.90;;;2.00;;
70444;SDS011;57902;49.638;11.070;2023-07-16T02:35:59;3.90;;;1.63;;
70444;SDS011;57902;49.638;11.070;2023-07-16T02:38:25;4.22;;;1.75;;
70444;SDS011;57902;49.638;11.070;2023-07-16T02:40:52;4.05;;;1.80;;
70444;SDS011;57902;49.638;11.070;2023-07-16T02:43:19;3.35;;;1.70;;
70444;SDS011;57902;49.638;11.070;2023-07-16T02:45:46;4.13;;;1.80;;
70444;SDS011;57902;49.638;11.070;2023-07-16T02:48:12;3.20;;;1.77;;
70444;SDS011;57902;49.638;11.070;2023-07-16T02:50:39;3.20;;;1.60;;
70444;SDS011;57902;49.638;11.070;2023-07-16T02:53:06;3.88;;;1.80;;
70444;SDS011;57902;49.638;11.070;2023-07-16T02:55:36;4.40;;;2.00;;
70444;SDS011;57902;49.638;11.070;2023-07-16T02:58:03;3.50;;;1.63;;
70444;SDS011;57902;49.638;11.070;2023-07-16T03:00:32;4.40;;;2.00;;
70444;SDS011;57902;49.638;11.070;2023-07-16T03:03:00;4.07;;;2.00;;
70444;SDS011;57902;49.638;11.070;2023-07-16T03:05:27;5.60;;;2.00;;
70444;SDS011;57902;49.638;11.070;2023-07-16T03:07:54;4.50;;;1.90;;
70444;SDS011;57902;49.638;11.070;2023-07-16T03:10:21;4.60;;;1.80;;
70444;SDS011;57902;49.638;11.070;2023-07-16T03:12:53;4.25;;;1.70;;
70444;SDS011;57902;49.638;11.070;2023-07-16T03:15:20;4.78;;;1.80;;
70444;SDS011;57902;49.638;11.070;2023-07-16T03:17:47;3.72;;;1.50;;
70444;SDS011;57902;49.638;11.070;2023-07-16T03:20:14;7.35;;;2.00;;
70444;SDS011;57902;49.638;11.070;2023-07-16T03:22:45;5.43;;;1.88;;
70444;SDS011;57902;49.638;11.070;2023-07-16T03:25:18;3.42;;;1.45;;
70444;SDS011;57902;49.638;11.070;2023-07-16T03:27:52;4.18;;;1.80;;
70444;SDS011;57902;49.638;11.070;2023-07-16T03:30:19;3.22;;;1.50;;
70444;SDS011;57902;49.638;11.070;2023-07-16T03:32:46;3.60;;;1.60;;
70444;SDS011;57902;49.638;11.070;2023-07-16T03:35:19;5.68;;;1.70;;
70444;SDS011;57902;49.638;11.070;2023-07-16T03:37:51;3.55;;;1.50;;
70444;SDS011;57902;49.638;11.070;2023-07-16T03:40:35;3.78;;;1.80;;
70444;SDS011;57902;49.638;11.070;2023-07-16T03:43:08;4.80;;;1.40;;
70444;SDS011;57902;49.638;11.070;2023-07-16T03:45:35;3.33;;;1.42;;
70444;SDS011;57902;49.638;11.070;2023-07-16T03:48:02;2.78;;;1.13;;
70444;SDS011;57902;49.638;11.070;2023-07-16T03:50:29;2.65;;;1.33;;
70444;SDS011;57902;49.638;11.070;2023-07-16T03:52:56;2.40;;;1.15;;
70444;SDS011;57902;49.638;11.070;2023-07-16T03:55:27;2.80;;;1.15;;
70444;SDS011;57902;49.638;11.070;2023-07-16T03:58:04;3.08;;;1.20;;
70444;SDS011;57902;49.638;11.070;2023-07-16T04:00:36;2.75;;;1.00;;
70444;SDS011;57902;49.638;11.070;2023-07-16T04:03:05;3.80;;;1.20;;
70444;SDS011;57902;49.638;11.070;2023-07-16T04:05:40;2.15;;;1.00;;
70444;SDS011;57902;49.638;11.070;2023-07-16T04:08:10;3.38;;;1.10;;
70444;SDS011;57902;49.638;11.070;2023-07-16T04:10:51;2.20;;;0.95;;
70444;SDS011;57902;49.638;11.070;2023-07-16T04:13:22;4.00;;;1.05;;
70444;SDS011;57902;49.638;11.070;2023-07-16T04:15:51;2.42;;;1.10;;
70444;SDS011;57902;49.638;11.070;2023-07-16T04:18:25;3.03;;;1.08;;
70444;SDS011;57902;49.638;11.070;2023-07-16T04:21:04;3.95;;;1.10;;
70444;SDS011;57902;49.638;11.070;2023-07-16T04:23:32;3.85;;;1.30;;
70444;SDS011;57902;49.638;11.070;2023-07-16T04:25:59;1.63;;;1.00;;
70444;SDS011;57902;49.638;11.070;2023-07-16T04:28:25;3.03;;;1.10;;
70444;SDS011;57902;49.638;11.070;2023-07-16T04:30:52;3.83;;;1.00;;
70444;SDS011;57902;49.638;11.070;2023-07-16T04:33:18;2.10;;;1.05;;
70444;SDS011;57902;49.638;11.070;2023-07-16T04:35:45;2.20;;;1.00;;
70444;SDS011;57902;49.638;11.070;2023-07-16T04:38:12;2.95;;;0.95;;
70444;SDS011;57902;49.638;11.070;2023-07-16T04:40:38;3.80;;;1.10;;
70444;SDS011;57902;49.638;11.070;2023-07-16T04:43:05;4.18;;;1.20;;
70444;SDS011;57902;49.638;11.070;2023-07-16T04:45:31;4.57;;;0.95;;
70444;SDS011;57902;49.638;11.070;2023-07-16T04:47:58;2.83;;;1.00;;
70444;SDS011;57902;49.638;11.070;2023-07-16T04:50:25;4.63;;;1.13;;
70444;SDS011;57902;49.638;11.070;2023-07-16T04:52:52;2.97;;;0.90;;
70444;SDS011;57902;49.638;11.070;2023-07-16T04:55:18;5.22;;;1.08;;
70444;SDS011;57902;49.638;11.070;2023-07-16T04:57:45;1.55;;;0.80;;
70444;SDS011;57902;49.638;11.070;2023-07-16T05:00:11;4.03;;;1.20;;
70444;SDS011;57902;49.638;11.070;2023-07-16T05:02:38;3.38;;;1.15;;
70444;SDS011;57902;49.638;11.070;2023-07-16T05:05:05;3.90;;;1.10;;
70444;SDS011;57902;49.638;11.070;2023-07-16T05:07:31;2.08;;;1.00;;
70444;SDS011;57902;49.638;11.070;2023-07-16T05:09:58;4.03;;;1.25;;
70444;SDS011;57902;49.638;11.070;2023-07-16T05:12:24;4.97;;;1.20;;
70444;SDS011;57902;49.638;11.070;2023-07-16T05:14:51;3.80;;;1.30;;
70444;SDS011;57902;49.638;11.070;2023-07-16T05:17:18;4.97;;;1.10;;
70444;SDS011;57902;49.638;11.070;2023-07-16T05:19:44;3.70;;;1.17;;
70444;SDS011;57902;49.638;11.070;2023-07-16T05:22:11;3.83;;;1.10;;
70444;SDS011;57902;49.638;11.070;2023-07-16T05:24:38;5.35;;;1.20;;
70444;SDS011;57902;49.638;11.070;2023-07-16T05:27:04;7.25;;;1.17;;
70444;SDS011;57902;49.638;11.070;2023-07-16T05:29:31;4.45;;;1.17;;
70444;SDS011;57902;49.638;11.070;2023-07-16T05:31:58;6.50;;;1.13;;
70444;SDS011;57902;49.638;11.070;2023-07-16T05:34:26;3.05;;;1.10;;
70444;SDS011;57902;49.638;11.070;2023-07-16T05:36:54;3.80;;;1.13;;
70444;SDS011;57902;49.638;11.070;2023-07-16T05:39:21;4.55;;;1.02;;
70444;SDS011;57902;49.638;11.070;2023-07-16T05:41:48;5.47;;;1.13;;
70444;SDS011;57902;49.638;11.070;2023-07-16T05:44:15;5.00;;;1.42;;
70444;SDS011;57902;49.638;11.070;2023-07-16T05:46:41;5.88;;;1.33;;
70444;SDS011;57902;49.638;11.070;2023-07-16T05:49:08;4.65;;;1.20;;
70444;SDS011;57902;49.638;11.070;2023-07-16T05:51:34;4.57;;;1.48;;
70444;SDS011;57902;49.638;11.070;2023-07-16T05:54:01;4.07;;;1.15;;
70444;SDS011;57902;49.638;11.070;2023-07-16T05:56:28;5.57;;;1.20;;
70444;SDS011;57902;49.638;11.070;2023-07-16T05:58:55;7.97;;;1.45;;
70444;SDS011;57902;49.638;11.070;2023-07-16T06:01:22;5.82;;;1.52;;
70444;SDS011;57902;49.638;11.070;2023-07-16T06:03:49;4.47;;;1.40;;
70444;SDS011;57902;49.638;11.070;2023-07-16T06:06:15;5.68;;;1.38;;
70444;SDS011;57902;49.638;11.070;2023-07-16T06:08:42;6.38;;;1.25;;
70444;SDS011;57902;49.638;11.070;2023-07-16T06:11:09;3.58;;;1.27;;
70444;SDS011;57902;49.638;11.070;2023-07-16T06:13:35;6.00;;;1.20;;
70444;SDS011;57902;49.638;11.070;2023-07-16T06:16:02;4.00;;;1.15;;
70444;SDS011;57902;49.638;11.070;2023-07-16T06:18:29;4.72;;;1.50;;
70444;SDS011;57902;49.638;11.070;2023-07-16T06:20:55;5.60;;;1.23;;
70444;SDS011;57902;49.638;11.070;2023-07-16T06:23:22;6.43;;;1.40;;
70444;SDS011;57902;49.638;11.070;2023-07-16T06:25:48;6.00;;;1.40;;
70444;SDS011;57902;49.638;11.070;2023-07-16T06:28:20;6.22;;;1.50;;
70444;SDS011;57902;49.638;11.070;2023-07-16T06:30:47;4.35;;;1.30;;
70444;SDS011;57902;49.638;11.070;2023-07-16T06:33:13;8.05;;;1.83;;
70444;SDS011;57902;49.638;11.070;2023-07-16T06:35:40;4.93;;;1.40;;
70444;SDS011;57902;49.638;11.070;2023-07-16T06:38:10;6.75;;;1.60;;
70444;SDS011;57902;49.638;11.070;2023-07-16T06:40:36;4.53;;;1.40;;
70444;SDS011;57902;49.638;11.070;2023-07-16T06:43:04;5.72;;;1.63;;
70444;SDS011;57902;49.638;11.070;2023-07-16T06:45:30;6.38;;;1.52;;
70444;SDS011;57902;49.638;11.070;2023-07-16T06:47:59;4.18;;;1.50;;
70444;SDS011;57902;49.638;11.070;2023-07-16T06:50:26;9.45;;;1.73;;
70444;SDS011;57902;49.638;11.070;2023-07-16T06:52:52;7.40;;;1.58;;
70444;SDS011;57902;49.638;11.070;2023-07-16T06:55:19;6.50;;;1.40;;
70444;SDS011;57902;49.638;11.070;2023-07-16T06:57:46;4.38;;;1.40;;
70444;SDS011;57902;49.638;11.070;2023-07-16T07:00:12;4.40;;;1.48;;
70444;SDS011;57902;49.638;11.070;2023-07-16T07:02:39;6.65;;;1.80;;
70444;SDS011;57902;49.638;11.070;2023-07-16T07:05:06;5.35;;;1.33;;
70444;SDS011;57902;49.638;11.070;2023-07-16T07:07:32;6.05;;;1.30;;
70444;SDS011;57902;49.638;11.070;2023-07-16T07:09:59;5.35;;;1.55;;
70444;SDS011;57902;49.638;11.070;2023-07-16T07:12:25;5.68;;;1.98;;
70444;SDS011;57902;49.638;11.070;2023-07-16T07:14:52;4.90;;;1.40;;
70444;SDS011;57902;49.638;11.070;2023-07-16T07:17:18;5.25;;;1.60;;
70444;SDS011;57902;49.638;11.070;2023-07-16T07:19:45;7.03;;;1.60;;
70444;SDS011;57902;49.638;11.070;2023-07-16T07:22:12;4.95;;;1.33;;
70444;SDS011;57902;49.638;11.070;2023-07-16T07:24:38;6.63;;;1.30;;
70444;SDS011;57902;49.638;11.070;2023-07-16T07:27:05;4.22;;;1.05;;
70444;SDS011;57902;49.638;11.070;2023-07-16T07:29:32;4.95;;;1.20;;
70444;SDS011;57902;49.638;11.070;2023-07-16T07:31:58;4.88;;;1.30;;
70444;SDS011;57902;49.638;11.070;2023-07-16T07:34:26;6.43;;;1.45;;
70444;SDS011;57902;49.638;11.070;2023-07-16T07:36:52;5.53;;;1.80;;
70444;SDS011;57902;49.638;11.070;2023-07-16T07:39:19;5.57;;;1.63;;
70444;SDS011;57902;49.638;11.070;2023-07-16T07:41:45;4.43;;;1.52;;
70444;SDS011;57902;49.638;11.070;2023-07-16T07:44:12;7.57;;;1.90;;
70444;SDS011;57902;49.638;11.070;2023-07-16T07:46:38;5.80;;;1.50;;
70444;SDS011;57902;49.638;11.070;2023-07-16T07:49:05;8.45;;;1.60;;
70444;SDS011;57902;49.638;11.070;2023-07-16T07:51:31;6.03;;;1.45;;
70444;SDS011;57902;49.638;11.070;2023-07-16T07:53:58;4.38;;;1.42;;
70444;SDS011;57902;49.638;11.070;2023-07-16T07:56:24;5.05;;;1.40;;
70444;SDS011;57902;49.638;11.070;2023-07-16T07:58:51;7.03;;;1.70;;
70444;SDS011;57902;49.638;11.070;2023-07-16T08:01:17;5.40;;;1.45;;
70444;SDS011;57902;49.638;11.070;2023-07-16T08:03:44;4.15;;;1.25;;
70444;SDS011;57902;49.638;11.070;2023-07-16T08:06:12;7.35;;;1.27;;
70444;SDS011;57902;49.638;11.070;2023-07-16T08:08:39;6.57;;;1.60;;
70444;SDS011;57902;49.638;11.070;2023-07-16T08:11:20;7.32;;;1.30;;
70444;SDS011;57902;49.638;11.070;2023-07-16T08:13:47;6.30;;;1.42;;
70444;SDS011;57902;49.638;11.070;2023-07-16T08:16:20;6.30;;;1.42;;
70444;SDS011;57902;49.638;11.070;2023-07-16T08:18:46;7.28;;;1.70;;
70444;SDS011;57902;49.638;11.070;2023-07-16T08:21:13;6.28;;;1.63;;
70444;SDS011;57902;49.638;11.070;2023-07-16T08:23:49;5.93;;;1.60;;
70444;SDS011;57902;49.638;11.070;2023-07-16T08:26:16;6.07;;;1.90;;
70444;SDS011;57902;49.638;11.070;2023-07-16T08:28:43;9.90;;;1.70;;
70444;SDS011;57902;49.638;11.070;2023-07-16T08:31:11;6.78;;;1.52;;
70444;SDS011;57902;49.638;11.070;2023-07-16T08:33:39;7.82;;;1.65;;
70444;SDS011;57902;49.638;11.070;2023-07-16T08:36:05;6.00;;;1.45;;
70444;SDS011;57902;49.638;11.070;2023-07-16T08:38:32;6.18;;;1.77;;
70444;SDS011;57902;49.638;11.070;2023-07-16T08:40:59;5.65;;;1.50;;
70444;SDS011;57902;49.638;11.070;2023-07-16T08:43:27;8.77;;;1.73;;
70444;SDS011;57902;49.638;11.070;2023-07-16T08:45:55;7.20;;;1.83;;
70444;SDS011;57902;49.638;11.070;2023-07-16T08:48:22;6.82;;;1.60;;
70444;SDS011;57902;49.638;11.070;2023-07-16T08:50:48;8.95;;;1.85;;
70444;SDS011;57902;49.638;11.070;2023-07-16T08:53:15;9.80;;;1.80;;
70444;SDS011;57902;49.638;11.070;2023-07-16T08:55:44;6.93;;;1.40;;
70444;SDS011;57902;49.638;11.070;2023-07-16T08:58:12;5.78;;;1.60;;
70444;SDS011;57902;49.638;11.070;2023-07-16T09:00:44;5.18;;;1.60;;
70444;SDS011;57902;49.638;11.070;2023-07-16T09:03:11;5.70;;;1.58;;
70444;SDS011;57902;49.638;11.070;2023-07-16T09:05:40;9.20;;;1.92;;
70444;SDS011;57902;49.638;11.070;2023-07-16T09:08:07;5.47;;;1.42;;
70444;SDS011;57902;49.638;11.070;2023-07-16T09:10:34;7.38;;;1.40;;
70444;SDS011;57902;49.638;11.070;2023-07-16T09:13:00;6.53;;;1.85;;
70444;SDS011;57902;49.638;11.070;2023-07-16T09:15:28;4.80;;;1.50;;
70444;SDS011;57902;49.638;11.070;2023-07-16T09:17:55;5.68;;;1.52;;
70444;SDS011;57902;49.638;11.070;2023-07-16T09:20:22;4.18;;;1.60;;
70444;SDS011;57902;49.638;11.070;2023-07-16T09:22:55;6.78;;;1.40;;
70444;SDS011;57902;49.638;11.070;2023-07-16T09:25:25;6.57;;;1.60;;
70444;SDS011;57902;49.638;11.070;2023-07-16T09:27:53;5.10;;;1.70;;
70444;SDS011;57902;49.638;11.070;2023-07-16T09:30:20;6.35;;;1.90;;
70444;SDS011;57902;49.638;11.070;2023-07-16T09:32:47;6.05;;;1.60;;
70444;SDS011;57902;49.638;11.070;2023-07-16T09:35:14;6.75;;;1.70;;
70444;SDS011;57902;49.638;11.070;2023-07-16T09:37:42;7.97;;;1.80;;
70444;SDS011;57902;49.638;11.070;2023-07-16T09:40:10;6.82;;;1.70;;
70444;SDS011;57902;49.638;11.070;2023-07-16T09:42:38;5.22;;;1.52;;
70444;SDS011;57902;49.638;11.070;2023-07-16T09:45:06;6.93;;;1.52;;
70444;SDS011;57902;49.638;11.070;2023-07-16T09:47:34;8.23;;;1.92;;
70444;SDS011;57902;49.638;11.070;2023-07-16T09:50:02;6.07;;;1.52;;
70444;SDS011;57902;49.638;11.070;2023-07-16T09:52:31;8.32;;;1.77;;
70444;SDS011;57902;49.638;11.070;2023-07-16T09:55:01;7.68;;;1.65;;
70444;SDS011;57902;49.638;11.070;2023-07-16T09:57:35;5.07;;;1.30;;
70444;SDS011;57902;49.638;11.070;2023-07-16T10:00:05;4.25;;;1.20;;
70444;SDS011;57902;49.638;11.070;2023-07-16T10:02:33;5.38;;;1.70;;
70444;SDS011;57902;49.638;11.070;2023-07-16T10:05:14;7.35;;;1.73;;
70444;SDS011;57902;49.638;11.070;2023-07-16T10:07:54;9.27;;;2.13;;
70444;SDS011;57902;49.638;11.070;2023-07-16T10:13:17;8.68;;;2.13;;
70444;SDS011;57902;49.638;11.070;2023-07-16T10:15:53;6.03;;;1.92;;
70444;SDS011;57902;49.638;11.070;2023-07-16T10:18:29;7.15;;;1.52;;
70444;SDS011;57902;49.638;11.070;2023-07-16T10:21:02;8.23;;;1.90;;
70444;SDS011;57902;49.638;11.070;2023-07-16T10:23:36;4.95;;;1.27;;
70444;SDS011;57902;49.638;11.070;2023-07-16T10:26:05;6.28;;;1.50;;
70444;SDS011;57902;49.638;11.070;2023-07-16T10:28:33;5.03;;;1.38;;
70444;SDS011;57902;49.638;11.070;2023-07-16T10:31:04;4.28;;;1.42;;
70444;SDS011;57902;49.638;11.070;2023-07-16T10:33:34;5.20;;;1.60;;
70444;SDS011;57902;49.638;11.070;2023-07-16T10:36:03;5.68;;;1.75;;
70444;SDS011;57902;49.638;11.070;2023-07-16T10:38:30;4.80;;;1.60;;
70444;SDS011;57902;49.638;11.070;2023-07-16T10:41:06;6.47;;;1.60;;
70444;SDS011;57902;49.638;11.070;2023-07-16T10:43:32;6.45;;;1.70;;
70444;SDS011;57902;49.638;11.070;2023-07-16T10:45:59;9.15;;;1.80;;
70444;SDS011;57902;49.638;11.070;2023-07-16T10:48:25;7.35;;;1.63;;
70444;SDS011;57902;49.638;11.070;2023-07-16T10:50:53;7.20;;;1.50;;
70444;SDS011;57902;49.638;11.070;2023-07-16T10:53:21;5.88;;;1.50;;
70444;SDS011;57902;49.638;11.070;2023-07-16T10:55:47;4.53;;;1.60;;
70444;SDS011;57902;49.638;11.070;2023-07-16T10:58:14;7.68;;;1.52;;
70444;SDS011;57902;49.638;11.070;2023-07-16T11:00:41;5.40;;;1.30;;
70444;SDS011;57902;49.638;11.070;2023-07-16T11:03:07;7.20;;;1.40;;
70444;SDS011;57902;49.638;11.070;2023-07-16T11:08:02;5.60;;;1.52;;
70444;SDS011;57902;49.638;11.070;2023-07-16T11:10:31;5.75;;;1.50;;
70444;SDS011;57902;49.638;11.070;2023-07-16T11:12:57;8.57;;;1.50;;
70444;SDS011;57902;49.638;11.070;2023-07-16T11:15:31;7.28;;;1.65;;
70444;SDS011;57902;49.638;11.070;2023-07-16T11:18:00;7.63;;;1.63;;
70444;SDS011;57902;49.638;11.070;2023-07-16T11:20:28;6.05;;;1.35;;
70444;SDS011;57902;49.638;11.070;2023-07-16T11:22:57;5.43;;;1.48;;
70444;SDS011;57902;49.638;11.070;2023-07-16T11:25:25;8.00;;;1.50;;
70444;SDS011;57902;49.638;11.070;2023-07-16T11:27:54;5.75;;;1.48;;
70444;SDS011;57902;49.638;11.070;2023-07-16T11:32:57;6.80;;;1.40;;
70444;SDS011;57902;49.638;11.070;2023-07-16T11:35:25;5.22;;;1.50;;
70444;SDS011;57902;49.638;11.070;2023-07-16T11:37:52;5.28;;;1.13;;
70444;SDS011;57902;49.638;11.070;2023-07-16T11:40:18;5.50;;;1.50;;
70444;SDS011;57902;49.638;11.070;2023-07-16T11:42:46;6.43;;;1.30;;
70444;SDS011;57902;49.638;11.070;2023-07-16T11:45:17;4.88;;;1.40;;
70444;SDS011;57902;49.638;11.070;2023-07-16T11:47:46;6.45;;;1.42;;
70444;SDS011;57902;49.638;11.070;2023-07-16T11:50:13;4.82;;;1.20;;
70444;SDS011;57902;49.638;11.070;2023-07-16T11:52:40;5.50;;;1.25;;
70444;SDS011;57902;49.638;11.070;2023-07-16T11:55:07;4.63;;;1.50;;
70444;SDS011;57902;49.638;11.070;2023-07-16T11:57:35;4.90;;;1.40;;
70444;SDS011;57902;49.638;11.070;2023-07-16T12:00:02;7.72;;;1.60;;
70444;SDS011;57902;49.638;11.070;2023-07-16T12:02:30;5.38;;;1.40;;
70444;SDS011;57902;49.638;11.070;2023-07-16T12:04:56;4.53;;;1.25;;
70444;SDS011;57902;49.638;11.070;2023-07-16T12:07:33;6.38;;;1.60;;
70444;SDS011;57902;49.638;11.070;2023-07-16T12:10:02;4.50;;;1.42;;
70444;SDS011;57902;49.638;11.070;2023-07-16T12:12:31;5.00;;;1.52;;
70444;SDS011;57902;49.638;11.070;2023-07-16T12:15:01;5.78;;;1.60;;
70444;SDS011;57902;49.638;11.070;2023-07-16T12:17:28;7.93;;;1.42;;
70444;SDS011;57902;49.638;11.070;2023-07-16T12:19:55;7.20;;;1.48;;
70444;SDS011;57902;49.638;11.070;2023-07-16T12:22:21;6.65;;;1.42;;
70444;SDS011;57902;49.638;11.070;2023-07-16T12:24:50;6.53;;;1.80;;
70444;SDS011;57902;49.638;11.070;2023-07-16T12:27:17;5.55;;;1.40;;
70444;SDS011;57902;49.638;11.070;2023-07-16T12:29:45;6.43;;;1.75;;
70444;SDS011;57902;49.638;11.070;2023-07-16T12:32:12;6.15;;;1.63;;
70444;SDS011;57902;49.638;11.070;2023-07-16T12:34:40;9.35;;;3.08;;
70444;SDS011;57902;49.638;11.070;2023-07-16T12:37:06;4.97;;;1.23;;
70444;SDS011;57902;49.638;11.070;2023-07-16T12:39:33;5.50;;;1.55;;
70444;SDS011;57902;49.638;11.070;2023-07-16T12:41:59;5.65;;;1.60;;
70444;SDS011;57902;49.638;11.070;2023-07-16T12:44:26;8.30;;;2.00;;
70444;SDS011;57902;49.638;11.070;2023-07-16T12:46:52;5.25;;;1.55;;
70444;SDS011;57902;49.638;11.070;2023-07-16T12:49:19;5.60;;;1.38;;
70444;SDS011;57902;49.638;11.070;2023-07-16T12:51:45;6.80;;;1.60;;
70444;SDS011;57902;49.638;11.070;2023-07-16T12:54:12;6.30;;;1.90;;
70444;SDS011;57902;49.638;11.070;2023-07-16T12:56:38;5.72;;;1.48;;
70444;SDS011;57902;49.638;11.070;2023-07-16T12:59:05;6.20;;;1.45;;
70444;SDS011;57902;49.638;11.070;2023-07-16T13:01:31;6.47;;;1.60;;
70444;SDS011;57902;49.638;11.070;2023-07-16T13:03:58;3.45;;;1.33;;
70444;SDS011;57902;49.638;11.070;2023-07-16T13:06:24;5.15;;;1.45;;
70444;SDS011;57902;49.638;11.070;2023-07-16T13:08:51;5.28;;;1.30;;
70444;SDS011;57902;49.638;11.070;2023-07-16T13:11:17;3.13;;;1.30;;
70444;SDS011;57902;49.638;11.070;2023-07-16T13:13:44;3.20;;;1.20;;
70444;SDS011;57902;49.638;11.070;2023-07-16T13:16:11;2.35;;;1.10;;
70444;SDS011;57902;49.638;11.070;2023-07-16T13:18:37;4.38;;;1.40;;
70444;SDS011;57902;49.638;11.070;2023-07-16T13:21:04;4.07;;;1.42;;
70444;SDS011;57902;49.638;11.070;2023-07-16T13:23:31;4.00;;;1.40;;
70444;SDS011;57902;49.638;11.070;2023-07-16T13:25:58;5.20;;;1.48;;
70444;SDS011;57902;49.638;11.070;2023-07-16T13:28:24;6.95;;;1.45;;
70444;SDS011;57902;49.638;11.070;2023-07-16T13:30:51;6.18;;;1.30;;
70444;SDS011;57902;49.638;11.070;2023-07-16T13:33:17;9.32;;;1.40;;
70444;SDS011;57902;49.638;11.070;2023-07-16T13:35:45;4.40;;;1.40;;
70444;SDS011;57902;49.638;11.070;2023-07-16T13:38:11;6.30;;;1.60;;
70444;SDS011;57902;49.638;11.070;2023-07-16T13:40:38;7.82;;;1.63;;
70444;SDS011;57902;49.638;11.070;2023-07-16T13:43:04;5.07;;;1.40;;
70444;SDS011;57902;49.638;11.070;2023-07-16T13:45:31;6.15;;;1.80;;
70444;SDS011;57902;49.638;11.070;2023-07-16T13:48:01;4.63;;;1.38;;
70444;SDS011;57902;49.638;11.070;2023-07-16T13:50:28;5.40;;;1.30;;
70444;SDS011;57902;49.638;11.070;2023-07-16T13:52:54;7.28;;;1.50;;
70444;SDS011;57902;49.638;11.070;2023-07-16T13:55:21;5.57;;;1.55;;
70444;SDS011;57902;49.638;11.070;2023-07-16T13:57:48;7.20;;;1.50;;
70444;SDS011;57902;49.638;11.070;2023-07-16T14:00:14;5.05;;;1.60;;
70444;SDS011;57902;49.638;11.070;2023-07-16T14:02:42;3.90;;;1.48;;
70444;SDS011;57902;49.638;11.070;2023-07-16T14:05:10;5.38;;;1.50;;
70444;SDS011;57902;49.638;11.070;2023-07-16T14:07:37;5.60;;;1.48;;
70444;SDS011;57902;49.638;11.070;2023-07-16T14:10:03;6.32;;;1.60;;
70444;SDS011;57902;49.638;11.070;2023-07-16T14:12:30;5.90;;;1.42;;
70444;SDS011;57902;49.638;11.070;2023-07-16T14:14:56;7.35;;;1.67;;
70444;SDS011;57902;49.638;11.070;2023-07-16T14:17:23;5.32;;;1.40;;
70444;SDS011;57902;49.638;11.070;2023-07-16T14:19:50;6.18;;;1.50;;
70444;SDS011;57902;49.638;11.070;2023-07-16T14:22:17;6.95;;;1.65;;
70444;SDS011;57902;49.638;11.070;2023-07-16T14:24:43;5.55;;;1.52;;
70444;SDS011;57902;49.638;11.070;2023-07-16T14:27:10;5.55;;;1.55;;
70444;SDS011;57902;49.638;11.070;2023-07-16T14:29:39;4.75;;;1.30;;
70444;SDS011;57902;49.638;11.070;2023-07-16T14:32:24;5.53;;;1.45;;
70444;SDS011;57902;49.638;11.070;2023-07-16T14:37:18;3.53;;;1.38;;
70444;SDS011;57902;49.638;11.070;2023-07-16T14:39:45;5.20;;;1.58;;
70444;SDS011;57902;49.638;11.070;2023-07-16T14:42:11;3.25;;;1.30;;
70444;SDS011;57902;49.638;11.070;2023-07-16T14:44:38;6.57;;;1.70;;
70444;SDS011;57902;49.638;11.070;2023-07-16T14:47:07;5.28;;;1.40;;
70444;SDS011;57902;49.638;11.070;2023-07-16T14:49:34;5.97;;;1.20;;
70444;SDS011;57902;49.638;11.070;2023-07-16T14:52:01;4.57;;;1.40;;
70444;SDS011;57902;49.638;11.070;2023-07-16T14:54:27;5.13;;;1.67;;
70444;SDS011;57902;49.638;11.070;2023-07-16T14:56:54;6.10;;;1.55;;
70444;SDS011;57902;49.638;11.070;2023-07-16T14:59:21;3.97;;;1.38;;
70444;SDS011;57902;49.638;11.070;2023-07-16T15:01:53;5.97;;;1.60;;